Midval, Wyoming
Current Conditions -  °F | °C
As of 12:53 AM on Sunday 21 Dec 2014 (Local Time) from KLND Reporting Station
Clear Clear  
Wind Chill: 15°   Ceiling: Unl
Heat Index: 15°   Visibility: 8mi
Dew Point: 12°   Wind: 3mph
Humidity: 88%   Direction: NA
Pressure: 29.75"   Gusts: NA
Location:  43.1005°N, 108.934°W
Report Text: KLND 210753Z AUTO VRB03KT 8SM CLR M09/M11 A2975 RMK AO2 SLP122 T10941111
Loading
Personal Weather Stations






























Interactive Weather Map New forecast layout! Learn more

10-Day Weather Forecast

Advertisements
Track Severe Weather on mobile